createdAt,value
2019-02-26T00:00:10.271Z,16.56
2019-02-26T00:02:48.588Z,16.29
2019-02-26T00:05:21.366Z,16.29
2019-02-26T00:07:53.295Z,16.39
2019-02-26T00:10:26.828Z,16.49
2019-02-26T00:12:58.439Z,16.49
2019-02-26T00:15:33.388Z,16.50
2019-02-26T00:18:07.478Z,16.50
2019-02-26T00:20:39.086Z,16.20
2019-02-26T00:23:10.173Z,15.99
2019-02-26T00:25:42.273Z,16.19
2019-02-26T00:28:15.384Z,16.19
2019-02-26T00:30:47.197Z,15.84
2019-02-26T00:33:22.109Z,15.79
2019-02-26T00:35:52.492Z,16.07
2019-02-26T00:38:23.930Z,15.92
2019-02-26T00:40:57.202Z,15.71
2019-02-26T00:43:30.175Z,15.71
2019-02-26T00:46:03.147Z,15.58
2019-02-26T00:48:36.113Z,15.58
2019-02-26T00:51:08.466Z,15.72
2019-02-26T00:53:40.043Z,15.54
2019-02-26T00:56:11.726Z,15.68
2019-02-26T00:58:44.156Z,15.68
2019-02-26T01:01:17.735Z,15.51
2019-02-26T01:03:51.793Z,15.34
2019-02-26T01:06:24.645Z,15.34
2019-02-26T01:08:56.889Z,15.51
2019-02-26T01:11:30.121Z,15.45
2019-02-26T01:14:02.128Z,15.45
2019-02-26T01:16:33.764Z,15.64
2019-02-26T01:19:05.333Z,18.98
2019-02-26T01:21:37.948Z,18.48
2019-02-26T01:24:09.437Z,18.70
2019-02-26T01:26:42.913Z,18.70
2019-02-26T01:29:18.620Z,19.03
2019-02-26T01:31:48.347Z,17.89
2019-02-26T01:34:20.976Z,17.89
2019-02-26T01:36:55.370Z,17.89
2019-02-26T01:39:27.288Z,17.89
2019-02-26T01:41:59.065Z,17.64
2019-02-26T01:44:32.466Z,18.50
2019-02-26T01:47:04.687Z,18.17
2019-02-26T01:49:36.508Z,17.90
2019-02-26T01:52:08.425Z,17.90
2019-02-26T01:54:41.466Z,17.34
2019-02-26T01:57:13.339Z,17.44
2019-02-26T01:59:47.452Z,17.44
2019-02-26T02:02:20.316Z,18.43
2019-02-26T02:04:54.995Z,18.61
2019-02-26T02:07:28.846Z,18.34
2019-02-26T02:10:00.556Z,18.56
2019-02-26T02:12:34.407Z,18.56
2019-02-26T02:15:10.060Z,18.35
2019-02-26T02:17:41.610Z,17.53
2019-02-26T02:20:18.005Z,17.92
2019-02-26T02:22:47.812Z,19.02
2019-02-26T02:25:19.594Z,17.82
2019-02-26T02:27:54.150Z,17.00
2019-02-26T02:30:28.121Z,17.95
2019-02-26T02:33:00.087Z,17.95
2019-02-26T02:35:32.173Z,18.21
2019-02-26T02:38:04.923Z,18.21
2019-02-26T02:40:39.903Z,18.67
2019-02-26T02:43:10.051Z,17.56
2019-02-26T02:45:43.417Z,17.56
2019-02-26T02:48:16.262Z,17.36
2019-02-26T02:50:47.887Z,17.29
2019-02-26T02:53:21.002Z,17.29
2019-02-26T02:55:53.830Z,17.62
2019-02-26T02:58:26.079Z,17.62
2019-02-26T03:01:00.209Z,16.99
2019-02-26T03:03:31.451Z,17.33
2019-02-26T03:06:06.512Z,17.88
2019-02-26T03:08:35.763Z,18.03
2019-02-26T03:11:07.643Z,18.03
2019-02-26T03:13:40.789Z,17.52
2019-02-26T03:16:15.778Z,17.17
2019-02-26T03:18:46.509Z,17.68
2019-02-26T03:21:20.152Z,17.13
2019-02-26T03:23:51.177Z,17.52
2019-02-26T03:26:23.537Z,17.52
2019-02-26T03:28:55.815Z,18.07
2019-02-26T03:31:32.752Z,17.81
2019-02-26T03:34:08.806Z,18.44
2019-02-26T03:36:36.781Z,17.62
2019-02-26T03:39:08.670Z,17.94
2019-02-26T03:41:40.736Z,17.94
2019-02-26T03:44:12.415Z,17.87
2019-02-26T03:46:44.039Z,18.41
2019-02-26T03:49:16.643Z,18.71
2019-02-26T03:51:48.349Z,18.71
2019-02-26T03:54:20.400Z,19.18
2019-02-26T03:56:52.261Z,18.31
2019-02-26T03:59:23.956Z,18.73
2019-02-26T04:01:56.476Z,18.73
2019-02-26T04:04:30.503Z,18.11
2019-02-26T04:07:03.724Z,18.61
2019-02-26T04:09:34.409Z,18.52
2019-02-26T04:12:07.629Z,18.52
2019-02-26T04:14:39.576Z,18.38
2019-02-26T04:17:11.213Z,18.19
2019-02-26T04:19:44.470Z,18.30
2019-02-26T04:22:35.757Z,18.45
2019-02-26T04:25:36.443Z,18.45
2019-02-26T04:28:20.395Z,18.72
2019-02-26T04:31:20.123Z,18.17
2019-02-26T04:34:27.367Z,18.43
2019-02-26T04:37:44.240Z,18.42
2019-02-26T04:40:33.016Z,18.78
2019-02-26T04:43:47.481Z,18.78
2019-02-26T04:46:48.830Z,18.80
2019-02-26T04:49:20.343Z,19.04
2019-02-26T04:51:52.077Z,19.04
2019-02-26T04:54:24.827Z,19.32
2019-02-26T04:56:57.109Z,19.61
2019-02-26T04:59:29.871Z,19.61
2019-02-26T05:02:03.014Z,19.71
2019-02-26T05:04:36.809Z,19.91
2019-02-26T05:07:12.743Z,19.92
2019-02-26T05:09:43.675Z,19.83
2019-02-26T05:12:15.314Z,19.83
2019-02-26T05:14:47.024Z,19.89
2019-02-26T05:17:21.314Z,19.65
2019-02-26T05:19:52.035Z,19.43
2019-02-26T05:22:25.595Z,19.43
2019-02-26T05:24:57.225Z,19.64
2019-02-26T05:27:29.059Z,20.05
2019-02-26T05:30:00.731Z,20.17
2019-02-26T05:32:35.542Z,20.18
2019-02-26T05:35:07.676Z,20.18
2019-02-26T05:37:40.996Z,19.72
2019-02-26T05:40:15.470Z,19.72
2019-02-26T05:42:46.686Z,20.04
2019-02-26T05:45:21.503Z,20.00
2019-02-26T05:47:56.101Z,20.18
2019-02-26T05:50:26.586Z,20.18
2019-02-26T05:53:01.689Z,20.14
2019-02-26T05:55:32.087Z,20.14
2019-02-26T05:58:03.757Z,19.85
2019-02-26T06:00:35.951Z,19.73
2019-02-26T06:03:09.647Z,19.82
2019-02-26T06:05:45.765Z,20.16
2019-02-26T06:08:14.849Z,19.82
2019-02-26T06:10:46.842Z,19.82
2019-02-26T06:13:19.071Z,19.77
2019-02-26T06:15:55.214Z,19.77
2019-02-26T06:18:29.016Z,19.81
2019-02-26T06:21:01.380Z,20.12
2019-02-26T06:23:34.535Z,20.01
2019-02-26T06:26:14.256Z,19.95
2019-02-26T06:28:52.780Z,19.95
2019-02-26T06:31:27.468Z,19.84
2019-02-26T06:34:01.590Z,19.91
2019-02-26T06:36:33.546Z,19.91
2019-02-26T06:39:06.130Z,19.82
2019-02-26T06:41:40.153Z,19.85
2019-02-26T06:44:12.306Z,19.94
2019-02-26T06:46:44.757Z,20.10
2019-02-26T06:49:17.738Z,20.09
2019-02-26T06:51:52.035Z,19.86
2019-02-26T06:54:26.751Z,19.98
2019-02-26T06:57:02.430Z,19.98
2019-02-26T06:59:36.853Z,20.00
2019-02-26T07:02:11.022Z,20.00
2019-02-26T07:04:42.695Z,20.26
2019-02-26T07:07:14.683Z,20.26
2019-02-26T07:09:46.824Z,20.36
2019-02-26T07:12:21.296Z,20.36
2019-02-26T07:14:53.522Z,20.45
2019-02-26T07:17:26.903Z,20.45
2019-02-26T07:20:00.799Z,20.89
2019-02-26T07:22:34.690Z,20.75
2019-02-26T07:25:10.686Z,20.75
2019-02-26T07:27:42.448Z,20.76
2019-02-26T07:30:14.658Z,20.76
2019-02-26T07:32:48.242Z,20.93
2019-02-26T07:35:20.699Z,20.93
2019-02-26T07:37:54.545Z,20.88
2019-02-26T07:40:30.531Z,21.03
2019-02-26T07:43:06.969Z,20.81
2019-02-26T07:45:36.698Z,20.81
2019-02-26T07:48:09.192Z,20.88
2019-02-26T07:50:43.976Z,20.88
2019-02-26T07:53:17.127Z,20.84
2019-02-26T07:55:49.205Z,20.91
2019-02-26T07:58:22.314Z,20.97
2019-02-26T08:00:54.178Z,20.96
2019-02-26T08:03:26.893Z,20.75
2019-02-26T08:06:04.776Z,20.75
2019-02-26T08:08:40.258Z,20.78
2019-02-26T08:11:18.647Z,20.93
2019-02-26T08:13:54.142Z,20.93
2019-02-26T08:16:29.987Z,20.82
2019-02-26T08:19:02.516Z,20.82
2019-02-26T08:21:34.286Z,20.85
2019-02-26T08:24:07.361Z,20.87
2019-02-26T08:26:40.540Z,20.87
2019-02-26T08:29:13.422Z,20.74
2019-02-26T08:31:47.490Z,20.64
2019-02-26T08:34:23.783Z,20.62
2019-02-26T08:36:56.270Z,20.81
2019-02-26T08:39:28.463Z,20.94
2019-02-26T08:42:18.842Z,20.83
2019-02-26T08:44:54.216Z,20.83
2019-02-26T08:47:26.731Z,20.82
2019-02-26T08:50:01.190Z,20.92
2019-02-26T08:52:36.303Z,21.09
2019-02-26T08:55:10.757Z,21.09
2019-02-26T08:57:45.262Z,20.96
2019-02-26T09:00:19.698Z,20.88
2019-02-26T09:02:54.461Z,20.79
2019-02-26T09:05:29.063Z,20.79
2019-02-26T09:08:00.263Z,20.87
2019-02-26T09:10:32.898Z,20.82
2019-02-26T09:13:06.269Z,20.77
2019-02-26T09:15:40.842Z,20.84
2019-02-26T09:18:14.587Z,20.84
2019-02-26T09:20:53.234Z,20.87
2019-02-26T09:23:28.790Z,20.87
2019-02-26T09:26:02.576Z,20.92
2019-02-26T09:28:38.500Z,20.93
2019-02-26T09:31:12.290Z,20.93
2019-02-26T09:33:48.297Z,20.92
2019-02-26T09:36:23.570Z,20.91
2019-02-26T09:38:55.258Z,20.88
2019-02-26T09:41:27.762Z,20.90
2019-02-26T09:44:01.955Z,20.85
2019-02-26T09:46:36.431Z,20.85
2019-02-26T09:49:12.617Z,20.86
2019-02-26T09:51:47.732Z,20.87
2019-02-26T09:54:22.567Z,20.88
2019-02-26T09:56:58.914Z,20.86
2019-02-26T09:59:33.526Z,20.86
2019-02-26T10:02:06.641Z,20.83
2019-02-26T10:04:42.459Z,20.83
2019-02-26T10:07:16.728Z,20.86
2019-02-26T10:09:51.008Z,20.88
2019-02-26T10:12:25.012Z,20.94
2019-02-26T10:15:04.681Z,20.92
2019-02-26T10:17:40.960Z,20.92
2019-02-26T10:20:17.736Z,20.88
2019-02-26T10:22:53.170Z,20.83
2019-02-26T10:25:29.331Z,20.87
2019-02-26T10:28:06.068Z,20.87
2019-02-26T10:30:41.718Z,20.89
2019-02-26T10:33:17.391Z,20.88
2019-02-26T10:35:51.123Z,20.88
2019-02-26T10:38:28.423Z,20.86
2019-02-26T10:41:01.671Z,20.59
2019-02-26T10:43:34.170Z,20.63
2019-02-26T10:46:07.231Z,20.63
2019-02-26T10:48:41.619Z,20.86
2019-02-26T10:51:16.738Z,20.86
2019-02-26T10:53:49.049Z,20.82
2019-02-26T10:56:22.000Z,20.80
2019-02-26T10:58:57.766Z,20.80
2019-02-26T11:01:30.996Z,20.64
2019-02-26T11:04:08.835Z,20.64
2019-02-26T11:06:45.200Z,20.52
2019-02-26T11:09:21.844Z,20.55
2019-02-26T11:11:57.546Z,20.50
2019-02-26T11:14:31.231Z,20.50
2019-02-26T11:17:05.228Z,20.75
2019-02-26T11:19:41.859Z,20.70
2019-02-26T11:22:18.236Z,20.69
2019-02-26T11:24:53.386Z,20.56
2019-02-26T11:27:27.423Z,20.73
2019-02-26T11:30:02.075Z,20.74
2019-02-26T11:32:37.904Z,20.22
2019-02-26T11:35:10.773Z,20.22
2019-02-26T11:37:45.443Z,20.24
2019-02-26T11:40:20.289Z,20.24
2019-02-26T11:42:52.895Z,20.61
2019-02-26T11:45:25.675Z,20.61
2019-02-26T11:48:00.372Z,20.33
2019-02-26T11:50:32.106Z,20.33
2019-02-26T11:53:04.582Z,20.03
2019-02-26T11:55:37.495Z,20.38
2019-02-26T11:58:10.783Z,20.39
2019-02-26T12:00:51.982Z,20.09
2019-02-26T12:06:01.961Z,20.18
2019-02-26T12:08:33.224Z,20.18
2019-02-26T12:11:06.708Z,20.37
2019-02-26T12:13:39.502Z,20.52
2019-02-26T12:16:13.840Z,20.52
2019-02-26T12:18:47.032Z,20.48
2019-02-26T12:21:18.676Z,20.55
2019-02-26T12:23:50.290Z,19.49
2019-02-26T12:26:27.980Z,19.49
2019-02-26T12:29:04.477Z,20.04
2019-02-26T12:31:38.366Z,20.04
2019-02-26T12:34:11.615Z,19.65
2019-02-26T12:36:42.826Z,19.65
2019-02-26T12:39:24.827Z,20.05
2019-02-26T12:41:58.796Z,19.31
2019-02-26T12:44:32.033Z,19.31
2019-02-26T12:47:03.769Z,19.36
2019-02-26T12:49:38.242Z,19.85
2019-02-26T12:52:09.005Z,19.81
2019-02-26T12:54:42.829Z,19.85
2019-02-26T12:57:16.949Z,19.78
2019-02-26T12:59:47.703Z,19.56
2019-02-26T13:02:20.795Z,19.56
2019-02-26T13:04:53.442Z,19.63
2019-02-26T13:07:25.167Z,19.95
2019-02-26T13:10:00.998Z,20.04
2019-02-26T13:12:32.327Z,20.04
2019-02-26T13:15:09.386Z,19.92
2019-02-26T13:17:38.947Z,19.70
2019-02-26T13:20:12.821Z,20.02
2019-02-26T13:22:45.940Z,19.94
2019-02-26T13:25:21.254Z,20.04
2019-02-26T13:27:51.592Z,20.04
2019-02-26T13:30:24.338Z,19.99
2019-02-26T13:32:59.957Z,19.93
2019-02-26T13:35:29.086Z,19.93
2019-02-26T13:38:00.733Z,19.31
2019-02-26T13:40:38.153Z,19.79
2019-02-26T13:43:07.780Z,19.79
2019-02-26T13:45:39.869Z,19.80
2019-02-26T13:48:11.430Z,19.82
2019-02-26T13:50:43.089Z,19.93
2019-02-26T13:53:14.487Z,19.60
2019-02-26T13:55:45.850Z,19.60
2019-02-26T13:58:17.119Z,19.53
2019-02-26T14:00:48.821Z,19.60
2019-02-26T14:03:20.715Z,19.01
2019-02-26T14:05:52.245Z,19.49
2019-02-26T14:08:24.777Z,19.57
2019-02-26T14:10:57.500Z,19.57
2019-02-26T14:13:29.295Z,19.44
2019-02-26T14:16:00.869Z,19.44
2019-02-26T14:18:32.589Z,19.59
2019-02-26T14:21:05.448Z,19.44
2019-02-26T14:23:37.187Z,19.44
2019-02-26T14:26:08.824Z,18.12
2019-02-26T14:28:40.560Z,18.12
2019-02-26T14:31:12.157Z,19.15
2019-02-26T14:33:44.314Z,18.91
2019-02-26T14:36:15.995Z,19.21
2019-02-26T14:38:50.446Z,19.21
2019-02-26T14:41:24.410Z,18.86
2019-02-26T14:43:55.939Z,19.08
2019-02-26T14:46:27.403Z,19.08
2019-02-26T14:48:59.118Z,17.60
2019-02-26T14:51:30.867Z,17.40
2019-02-26T14:54:03.040Z,17.40
2019-02-26T14:56:34.943Z,17.31
2019-02-26T14:59:06.571Z,17.31
2019-02-26T15:01:38.338Z,17.24
2019-02-26T15:04:10.089Z,17.15
2019-02-26T15:06:41.980Z,17.22
2019-02-26T15:09:14.114Z,17.22
2019-02-26T15:11:45.889Z,17.29
2019-02-26T15:14:17.563Z,17.20
2019-02-26T15:16:49.474Z,17.20
2019-02-26T15:19:21.151Z,17.19
2019-02-26T15:21:57.248Z,17.19
2019-02-26T15:24:28.889Z,17.08
2019-02-26T15:27:00.835Z,17.08
2019-02-26T15:29:32.421Z,16.93
2019-02-26T15:32:04.337Z,17.12
2019-02-26T15:34:35.986Z,17.08
2019-02-26T15:37:07.502Z,17.25
2019-02-26T15:39:39.318Z,17.26
2019-02-26T15:42:10.663Z,17.36
2019-02-26T15:44:41.818Z,17.18
2019-02-26T15:47:13.576Z,17.18
2019-02-26T15:49:44.837Z,16.98
2019-02-26T15:52:16.188Z,17.12
2019-02-26T15:54:47.720Z,17.12
2019-02-26T15:57:19.237Z,17.02
2019-02-26T15:59:51.353Z,16.92
2019-02-26T16:02:23.063Z,16.92
2019-02-26T16:04:54.593Z,16.88
2019-02-26T16:07:25.925Z,16.72
2019-02-26T16:09:57.720Z,16.71
2019-02-26T16:12:29.460Z,16.80
2019-02-26T16:15:01.050Z,16.79
2019-02-26T16:17:32.400Z,16.64
2019-02-26T16:20:05.213Z,16.57
2019-02-26T16:22:37.244Z,16.64
2019-02-26T16:25:09.077Z,16.64
2019-02-26T16:27:40.633Z,16.72
2019-02-26T16:30:19.470Z,16.62
2019-02-26T16:32:51.121Z,16.62
2019-02-26T16:35:25.515Z,16.31
2019-02-26T16:37:56.830Z,16.37
2019-02-26T16:40:31.460Z,16.42
2019-02-26T16:43:01.948Z,16.25
2019-02-26T16:45:35.246Z,16.15
2019-02-26T16:48:07.079Z,16.17
2019-02-26T16:50:39.421Z,16.17
2019-02-26T16:53:11.134Z,16.42
2019-02-26T16:55:42.948Z,16.42
2019-02-26T16:58:14.590Z,16.42
2019-02-26T17:00:48.736Z,16.42
2019-02-26T17:03:20.174Z,16.34
2019-02-26T17:05:52.230Z,16.59
2019-02-26T17:08:25.829Z,16.53
2019-02-26T17:10:57.765Z,16.53
2019-02-26T17:13:29.478Z,16.75
2019-02-26T17:16:01.100Z,16.83
2019-02-26T17:18:32.922Z,16.63
2019-02-26T17:21:04.662Z,16.64
2019-02-26T17:23:36.551Z,16.64
2019-02-26T17:26:08.393Z,16.61
2019-02-26T17:28:44.128Z,16.44
2019-02-26T17:31:15.534Z,16.44
2019-02-26T17:33:47.255Z,16.50
2019-02-26T17:36:19.454Z,16.34
2019-02-26T17:38:51.744Z,16.28
2019-02-26T17:41:24.025Z,16.20
2019-02-26T17:43:56.850Z,16.04
2019-02-26T17:46:29.123Z,15.95
2019-02-26T17:49:02.686Z,16.05
2019-02-26T17:51:34.035Z,16.05
2019-02-26T17:54:06.103Z,15.98
2019-02-26T17:56:37.771Z,15.98
2019-02-26T17:59:09.419Z,15.81
2019-02-26T18:01:41.233Z,15.77
2019-02-26T18:04:12.704Z,15.70
2019-02-26T18:06:44.385Z,15.71
2019-02-26T18:09:16.408Z,15.71
2019-02-26T18:11:48.257Z,15.75
2019-02-26T18:14:19.590Z,15.61
2019-02-26T18:16:51.348Z,15.65
2019-02-26T18:19:22.920Z,15.63
2019-02-26T18:21:54.994Z,15.44
2019-02-26T18:24:27.002Z,15.63
2019-02-26T18:26:58.462Z,15.76
2019-02-26T18:29:30.120Z,15.50
2019-02-26T18:32:01.846Z,15.50
2019-02-26T18:34:33.418Z,15.48
2019-02-26T18:37:05.124Z,15.78
2019-02-26T18:39:36.498Z,15.99
2019-02-26T18:42:08.400Z,15.99
2019-02-26T18:44:40.114Z,15.59
2019-02-26T18:47:11.708Z,15.59
2019-02-26T18:49:43.486Z,15.45
2019-02-26T18:52:14.991Z,15.45
2019-02-26T18:54:46.627Z,15.18
2019-02-26T18:57:18.053Z,15.78
2019-02-26T18:59:53.404Z,15.97
2019-02-26T19:02:22.735Z,15.97
2019-02-26T19:04:55.213Z,16.13
2019-02-26T19:07:26.907Z,15.99
2019-02-26T19:09:58.974Z,16.12
2019-02-26T19:12:31.157Z,16.07
2019-02-26T19:15:03.135Z,15.68
2019-02-26T19:17:35.264Z,15.76
2019-02-26T19:20:07.747Z,15.76
2019-02-26T19:22:40.649Z,15.96
2019-02-26T19:25:12.680Z,15.71
2019-02-26T19:27:44.071Z,15.72
2019-02-26T19:30:17.236Z,15.68
2019-02-26T19:32:48.770Z,15.68
2019-02-26T19:35:20.686Z,15.39
2019-02-26T19:37:55.130Z,15.38
2019-02-26T19:40:30.415Z,15.38
2019-02-26T19:43:02.094Z,15.12
2019-02-26T19:45:33.988Z,15.12
2019-02-26T19:48:05.878Z,15.20
2019-02-26T19:50:37.452Z,15.10
2019-02-26T19:53:10.737Z,15.04
2019-02-26T19:55:42.469Z,15.05
2019-02-26T19:58:14.022Z,15.05
2019-02-26T20:00:46.156Z,15.15
2019-02-26T20:03:17.732Z,15.17
2019-02-26T20:05:49.628Z,15.17
2019-02-26T20:08:21.243Z,15.06
2019-02-26T20:10:54.081Z,15.41
2019-02-26T20:13:25.784Z,15.41
2019-02-26T20:15:57.665Z,15.21
2019-02-26T20:18:29.519Z,15.50
2019-02-26T20:21:01.115Z,15.44
2019-02-26T20:23:33.464Z,15.44
2019-02-26T20:26:04.997Z,15.16
2019-02-26T20:28:36.986Z,15.30
2019-02-26T20:31:08.488Z,15.42
2019-02-26T20:33:40.524Z,15.47
2019-02-26T20:36:12.204Z,15.36
2019-02-26T20:38:44.047Z,15.36
2019-02-26T20:41:15.786Z,15.34
2019-02-26T20:43:47.276Z,15.50
2019-02-26T20:46:18.776Z,15.41
2019-02-26T20:48:51.906Z,15.41
2019-02-26T20:51:26.860Z,15.50
2019-02-26T20:53:56.858Z,15.52
2019-02-26T20:56:30.612Z,15.74
2019-02-26T20:59:01.552Z,15.46
2019-02-26T21:01:33.992Z,15.46
2019-02-26T21:04:05.430Z,15.39
2019-02-26T21:06:39.037Z,15.13
2019-02-26T21:09:10.886Z,15.10
2019-02-26T21:11:42.681Z,15.09
2019-02-26T21:14:14.316Z,14.84
2019-02-26T21:16:45.847Z,14.81
2019-02-26T21:19:18.057Z,14.81
2019-02-26T21:21:49.610Z,15.22
2019-02-26T21:24:21.306Z,15.49
2019-02-26T21:26:53.376Z,15.49
2019-02-26T21:29:24.873Z,15.08
2019-02-26T21:31:57.043Z,14.96
2019-02-26T21:34:28.687Z,14.64
2019-02-26T21:37:00.644Z,14.64
2019-02-26T21:39:32.002Z,14.99
2019-02-26T21:42:03.737Z,15.11
2019-02-26T21:44:36.324Z,14.93
2019-02-26T21:47:07.912Z,14.86
2019-02-26T21:49:40.882Z,14.84
2019-02-26T21:52:12.643Z,14.92
2019-02-26T21:54:45.371Z,15.05
2019-02-26T21:57:16.942Z,15.19
2019-02-26T21:59:50.163Z,15.19
2019-02-26T22:02:21.906Z,15.11
2019-02-26T22:04:53.461Z,15.00
2019-02-26T22:07:24.833Z,14.80
2019-02-26T22:09:56.644Z,14.99
2019-02-26T22:12:28.344Z,14.95
2019-02-26T22:15:00.310Z,15.01
2019-02-26T22:17:31.789Z,14.97
2019-02-26T22:20:03.417Z,14.97
2019-02-26T22:22:34.913Z,14.51
2019-02-26T22:25:09.922Z,14.51
2019-02-26T22:27:40.647Z,14.92
2019-02-26T22:30:15.002Z,14.96
2019-02-26T22:32:46.632Z,14.80
2019-02-26T22:35:18.418Z,14.80
2019-02-26T22:37:49.760Z,14.93
2019-02-26T22:40:22.753Z,14.93
2019-02-26T22:42:54.767Z,14.88
2019-02-26T22:45:27.962Z,14.97
2019-02-26T22:47:59.760Z,14.97
2019-02-26T22:50:31.315Z,15.02
2019-02-26T22:53:03.952Z,14.92
2019-02-26T22:55:37.060Z,14.91
2019-02-26T22:58:08.757Z,15.06
2019-02-26T23:01:06.532Z,14.83
2019-02-26T23:03:40.763Z,14.92
2019-02-26T23:06:13.572Z,14.92
2019-02-26T23:08:45.992Z,14.99
2019-02-26T23:11:19.727Z,14.85
2019-02-26T23:13:51.512Z,14.93
2019-02-26T23:16:24.172Z,14.79
2019-02-26T23:18:56.847Z,14.89
2019-02-26T23:21:28.463Z,14.86
2019-02-26T23:24:01.351Z,14.86
2019-02-26T23:26:33.436Z,14.91
2019-02-26T23:29:05.235Z,14.59
2019-02-26T23:31:38.301Z,14.71
2019-02-26T23:34:10.042Z,14.97
2019-02-26T23:36:42.128Z,14.81
2019-02-26T23:39:15.198Z,14.81
2019-02-26T23:41:48.468Z,14.97
2019-02-26T23:44:20.116Z,14.54
2019-02-26T23:46:52.034Z,14.68
2019-02-26T23:49:23.638Z,14.68
2019-02-26T23:51:55.336Z,14.86
2019-02-26T23:54:26.837Z,14.74
2019-02-26T23:56:59.414Z,14.91
2019-02-26T23:59:30.923Z,14.81
